メインページ
METAR-TAF:

METAR-TAF

空港 :

アンカレッジ, アラスカ州, アメリカ合衆国

テッド・スティーブンス・アンカレッジ国際空港

緯度: 61-10-28N, 経度: 149-59-46W, 海抜: 44m

現時点の気象観測

当レポートは58分前の14:53(UTC)に作成
北/北西の風 4kt
気温 1°C
湿度 75%
気圧 997 hPa
視程: 16.1km
高度11000ftの雲は散在している

METAR: PANC 191453Z 33004KT 10SM SCT110 01/M03 A2943 RMK AO2 SLP967 T00111033 56008

時間: 07:51 (15:51 UTC)

予報

当レポートは4時間14分前の11:37(UTC)に作成
予報は19日の 12時(UTC)から 20日の 18時(UTC)まで有効
変向風 5kt
視程: 10km
高度10000ftの千切れ雲あり
20日の 0600時(UTC)から
の風 7kt
視程: 10km
高度6000ftの雲は散在している
高度12000ftの千切れ雲あり
20日の 1700時(UTC)から
南/南東の風 10kt
視程: 10km
高度6000ftの千切れ雲あり
高度8000ftの曇り
近辺でにわか雨

TAF: PANC 191137Z 1912/2018 VRB05KT P6SM BKN100 FM200600 17007KT P6SM SCT060 BKN120 FM201700 16010KT P6SM VCSH BKN060 OVC080

4,000以上の空港の気象観測と天気予報(METAR報とTAF報)

利用可能な観測所は地図上に黄色い丸と赤い丸で示す。

丸の上にカーソルを重ねると観測所名を参照できる。

次にクリックすると気象観測と天気予報を参照できる。

マップの切り替え:黒色「×」印の緑ボタンをクリックして拡大、「-」印の緑ボタンをクリックして縮小、緑色の三角印をクリックして隣りの地図に切り替え


METAR-TAF: